sensor_id;sensor_type;location;lat;lon;timestamp;P1;durP1;ratioP1;P2;durP2;ratioP2
14770;SDS011;7477;45.222;5.688;2023-02-28T00:00:47;10.53;;;7.27;;
14770;SDS011;7477;45.222;5.688;2023-02-28T00:04:06;13.17;;;7.83;;
14770;SDS011;7477;45.222;5.688;2023-02-28T00:07:27;14.00;;;8.77;;
14770;SDS011;7477;45.222;5.688;2023-02-28T00:10:48;12.30;;;7.47;;
14770;SDS011;7477;45.222;5.688;2023-02-28T00:14:07;13.77;;;8.27;;
14770;SDS011;7477;45.222;5.688;2023-02-28T00:17:26;11.93;;;7.70;;
14770;SDS011;7477;45.222;5.688;2023-02-28T00:20:46;10.63;;;7.17;;
14770;SDS011;7477;45.222;5.688;2023-02-28T00:24:05;12.77;;;8.13;;
14770;SDS011;7477;45.222;5.688;2023-02-28T00:27:24;11.30;;;7.67;;
14770;SDS011;7477;45.222;5.688;2023-02-28T00:30:44;13.97;;;7.07;;
14770;SDS011;7477;45.222;5.688;2023-02-28T00:34:03;12.43;;;7.10;;
14770;SDS011;7477;45.222;5.688;2023-02-28T00:37:23;12.53;;;8.17;;
14770;SDS011;7477;45.222;5.688;2023-02-28T00:40:42;20.07;;;10.63;;
14770;SDS011;7477;45.222;5.688;2023-02-28T00:44:02;18.90;;;10.27;;
14770;SDS011;7477;45.222;5.688;2023-02-28T00:47:21;16.50;;;9.77;;
14770;SDS011;7477;45.222;5.688;2023-02-28T00:50:41;14.33;;;9.50;;
14770;SDS011;7477;45.222;5.688;2023-02-28T00:54:00;12.17;;;7.13;;
14770;SDS011;7477;45.222;5.688;2023-02-28T00:57:19;12.80;;;8.13;;
14770;SDS011;7477;45.222;5.688;2023-02-28T01:00:39;10.43;;;7.60;;
14770;SDS011;7477;45.222;5.688;2023-02-28T01:03:59;11.03;;;7.73;;
14770;SDS011;7477;45.222;5.688;2023-02-28T01:07:19;12.47;;;8.50;;
14770;SDS011;7477;45.222;5.688;2023-02-28T01:10:38;10.50;;;7.67;;
14770;SDS011;7477;45.222;5.688;2023-02-28T01:13:58;9.40;;;6.67;;
14770;SDS011;7477;45.222;5.688;2023-02-28T01:17:17;13.57;;;7.63;;
14770;SDS011;7477;45.222;5.688;2023-02-28T01:20:37;12.37;;;8.03;;
14770;SDS011;7477;45.222;5.688;2023-02-28T01:23:57;11.10;;;7.23;;
14770;SDS011;7477;45.222;5.688;2023-02-28T01:27:16;12.17;;;7.17;;
14770;SDS011;7477;45.222;5.688;2023-02-28T01:30:36;13.03;;;7.33;;
14770;SDS011;7477;45.222;5.688;2023-02-28T01:33:55;9.80;;;6.93;;
14770;SDS011;7477;45.222;5.688;2023-02-28T01:37:14;10.07;;;7.07;;
14770;SDS011;7477;45.222;5.688;2023-02-28T01:40:34;8.97;;;7.00;;
14770;SDS011;7477;45.222;5.688;2023-02-28T01:47:17;9.13;;;6.53;;
14770;SDS011;7477;45.222;5.688;2023-02-28T01:50:38;10.33;;;7.77;;
14770;SDS011;7477;45.222;5.688;2023-02-28T01:54:05;13.23;;;7.17;;
14770;SDS011;7477;45.222;5.688;2023-02-28T01:57:33;9.50;;;6.40;;
14770;SDS011;7477;45.222;5.688;2023-02-28T02:00:56;9.57;;;6.63;;
14770;SDS011;7477;45.222;5.688;2023-02-28T02:04:15;9.53;;;6.93;;
14770;SDS011;7477;45.222;5.688;2023-02-28T02:07:36;10.47;;;7.30;;
14770;SDS011;7477;45.222;5.688;2023-02-28T02:11:00;8.87;;;6.27;;
14770;SDS011;7477;45.222;5.688;2023-02-28T02:14:55;8.20;;;6.23;;
14770;SDS011;7477;45.222;5.688;2023-02-28T02:18:38;12.50;;;7.27;;
14770;SDS011;7477;45.222;5.688;2023-02-28T02:25:38;8.97;;;6.50;;
14770;SDS011;7477;45.222;5.688;2023-02-28T02:36:23;8.70;;;6.33;;
14770;SDS011;7477;45.222;5.688;2023-02-28T02:43:39;10.33;;;6.73;;
14770;SDS011;7477;45.222;5.688;2023-02-28T02:47:09;10.93;;;6.90;;
14770;SDS011;7477;45.222;5.688;2023-02-28T02:50:41;10.43;;;7.33;;
14770;SDS011;7477;45.222;5.688;2023-02-28T02:54:15;7.37;;;6.37;;
14770;SDS011;7477;45.222;5.688;2023-02-28T02:58:00;11.03;;;6.90;;
14770;SDS011;7477;45.222;5.688;2023-02-28T03:01:22;11.07;;;7.73;;
14770;SDS011;7477;45.222;5.688;2023-02-28T03:04:48;15.07;;;7.77;;
14770;SDS011;7477;45.222;5.688;2023-02-28T03:08:11;10.73;;;6.70;;
14770;SDS011;7477;45.222;5.688;2023-02-28T03:11:30;11.23;;;7.33;;
14770;SDS011;7477;45.222;5.688;2023-02-28T03:18:40;8.07;;;6.33;;
14770;SDS011;7477;45.222;5.688;2023-02-28T03:25:33;10.27;;;6.80;;
14770;SDS011;7477;45.222;5.688;2023-02-28T03:35:51;8.73;;;6.77;;
14770;SDS011;7477;45.222;5.688;2023-02-28T03:39:19;10.30;;;6.50;;
14770;SDS011;7477;45.222;5.688;2023-02-28T03:42:46;7.50;;;6.17;;
14770;SDS011;7477;45.222;5.688;2023-02-28T03:46:11;10.03;;;7.13;;
14770;SDS011;7477;45.222;5.688;2023-02-28T03:49:40;9.80;;;7.23;;
14770;SDS011;7477;45.222;5.688;2023-02-28T03:53:20;8.00;;;5.93;;
14770;SDS011;7477;45.222;5.688;2023-02-28T03:56:53;8.63;;;6.27;;
14770;SDS011;7477;45.222;5.688;2023-02-28T04:00:38;7.70;;;5.77;;
14770;SDS011;7477;45.222;5.688;2023-02-28T04:03:59;9.67;;;6.73;;
14770;SDS011;7477;45.222;5.688;2023-02-28T04:07:19;9.27;;;6.63;;
14770;SDS011;7477;45.222;5.688;2023-02-28T04:10:38;7.97;;;6.57;;
14770;SDS011;7477;45.222;5.688;2023-02-28T04:13:58;9.60;;;6.27;;
14770;SDS011;7477;45.222;5.688;2023-02-28T04:17:17;11.97;;;7.30;;
14770;SDS011;7477;45.222;5.688;2023-02-28T04:20:37;10.93;;;7.47;;
14770;SDS011;7477;45.222;5.688;2023-02-28T04:23:56;9.73;;;7.87;;
14770;SDS011;7477;45.222;5.688;2023-02-28T04:27:19;13.00;;;7.50;;
14770;SDS011;7477;45.222;5.688;2023-02-28T04:30:39;15.20;;;6.83;;
14770;SDS011;7477;45.222;5.688;2023-02-28T04:33:58;9.47;;;6.93;;
14770;SDS011;7477;45.222;5.688;2023-02-28T04:37:18;9.20;;;6.73;;
14770;SDS011;7477;45.222;5.688;2023-02-28T04:40:38;11.23;;;6.43;;
14770;SDS011;7477;45.222;5.688;2023-02-28T04:43:57;8.20;;;6.73;;
14770;SDS011;7477;45.222;5.688;2023-02-28T04:47:17;10.30;;;6.90;;
14770;SDS011;7477;45.222;5.688;2023-02-28T04:50:36;11.10;;;7.07;;
14770;SDS011;7477;45.222;5.688;2023-02-28T04:53:55;12.97;;;7.43;;
14770;SDS011;7477;45.222;5.688;2023-02-28T04:57:14;10.20;;;7.20;;
14770;SDS011;7477;45.222;5.688;2023-02-28T05:00:33;10.20;;;7.57;;
14770;SDS011;7477;45.222;5.688;2023-02-28T05:03:54;10.30;;;7.37;;
14770;SDS011;7477;45.222;5.688;2023-02-28T05:07:15;10.07;;;7.97;;
14770;SDS011;7477;45.222;5.688;2023-02-28T05:10:34;12.40;;;8.00;;
14770;SDS011;7477;45.222;5.688;2023-02-28T05:13:53;11.73;;;7.77;;
14770;SDS011;7477;45.222;5.688;2023-02-28T05:17:12;9.47;;;7.50;;
14770;SDS011;7477;45.222;5.688;2023-02-28T05:20:31;13.50;;;7.77;;
14770;SDS011;7477;45.222;5.688;2023-02-28T05:23:51;10.83;;;8.03;;
14770;SDS011;7477;45.222;5.688;2023-02-28T05:27:11;11.20;;;8.10;;
14770;SDS011;7477;45.222;5.688;2023-02-28T05:30:30;9.83;;;8.13;;
14770;SDS011;7477;45.222;5.688;2023-02-28T05:33:50;9.63;;;7.57;;
14770;SDS011;7477;45.222;5.688;2023-02-28T05:37:13;17.17;;;9.30;;
14770;SDS011;7477;45.222;5.688;2023-02-28T05:40:34;9.50;;;7.83;;
14770;SDS011;7477;45.222;5.688;2023-02-28T05:43:53;13.60;;;8.30;;
14770;SDS011;7477;45.222;5.688;2023-02-28T05:47:12;12.17;;;8.03;;
14770;SDS011;7477;45.222;5.688;2023-02-28T05:50:34;10.50;;;7.67;;
14770;SDS011;7477;45.222;5.688;2023-02-28T05:53:53;10.33;;;7.23;;
14770;SDS011;7477;45.222;5.688;2023-02-28T05:57:13;11.90;;;7.00;;
14770;SDS011;7477;45.222;5.688;2023-02-28T06:00:34;11.30;;;7.73;;
14770;SDS011;7477;45.222;5.688;2023-02-28T06:03:53;10.90;;;7.90;;
14770;SDS011;7477;45.222;5.688;2023-02-28T06:07:13;12.83;;;8.60;;
14770;SDS011;7477;45.222;5.688;2023-02-28T06:10:32;13.33;;;9.90;;
14770;SDS011;7477;45.222;5.688;2023-02-28T06:13:58;24.57;;;16.13;;
14770;SDS011;7477;45.222;5.688;2023-02-28T06:17:18;16.97;;;9.40;;
14770;SDS011;7477;45.222;5.688;2023-02-28T06:20:37;20.50;;;14.47;;
14770;SDS011;7477;45.222;5.688;2023-02-28T06:23:57;13.60;;;9.67;;
14770;SDS011;7477;45.222;5.688;2023-02-28T06:27:17;30.47;;;17.53;;
14770;SDS011;7477;45.222;5.688;2023-02-28T06:30:37;34.53;;;19.80;;
14770;SDS011;7477;45.222;5.688;2023-02-28T06:33:56;28.27;;;17.47;;
14770;SDS011;7477;45.222;5.688;2023-02-28T06:37:16;13.63;;;8.63;;
14770;SDS011;7477;45.222;5.688;2023-02-28T06:40:36;13.83;;;9.13;;
14770;SDS011;7477;45.222;5.688;2023-02-28T06:43:55;17.77;;;11.87;;
14770;SDS011;7477;45.222;5.688;2023-02-28T06:47:14;11.73;;;8.30;;
14770;SDS011;7477;45.222;5.688;2023-02-28T06:50:34;12.40;;;8.97;;
14770;SDS011;7477;45.222;5.688;2023-02-28T06:53:53;13.03;;;9.00;;
14770;SDS011;7477;45.222;5.688;2023-02-28T06:57:12;11.10;;;8.60;;
14770;SDS011;7477;45.222;5.688;2023-02-28T07:00:31;17.83;;;10.23;;
14770;SDS011;7477;45.222;5.688;2023-02-28T07:03:51;13.67;;;9.23;;
14770;SDS011;7477;45.222;5.688;2023-02-28T07:07:11;10.13;;;7.80;;
14770;SDS011;7477;45.222;5.688;2023-02-28T07:10:30;16.43;;;9.00;;
14770;SDS011;7477;45.222;5.688;2023-02-28T07:13:50;11.97;;;8.17;;
14770;SDS011;7477;45.222;5.688;2023-02-28T07:17:10;10.93;;;8.53;;
14770;SDS011;7477;45.222;5.688;2023-02-28T07:20:30;15.43;;;9.20;;
14770;SDS011;7477;45.222;5.688;2023-02-28T07:23:50;11.90;;;9.10;;
14770;SDS011;7477;45.222;5.688;2023-02-28T07:27:10;12.07;;;9.20;;
14770;SDS011;7477;45.222;5.688;2023-02-28T07:30:29;11.47;;;8.40;;
14770;SDS011;7477;45.222;5.688;2023-02-28T07:33:49;14.70;;;8.60;;
14770;SDS011;7477;45.222;5.688;2023-02-28T07:37:08;11.87;;;8.33;;
14770;SDS011;7477;45.222;5.688;2023-02-28T07:40:27;14.73;;;9.83;;
14770;SDS011;7477;45.222;5.688;2023-02-28T07:43:47;12.27;;;8.30;;
14770;SDS011;7477;45.222;5.688;2023-02-28T07:47:07;9.67;;;8.20;;
14770;SDS011;7477;45.222;5.688;2023-02-28T07:50:27;10.23;;;8.10;;
14770;SDS011;7477;45.222;5.688;2023-02-28T07:53:49;9.97;;;7.67;;
14770;SDS011;7477;45.222;5.688;2023-02-28T07:57:08;9.27;;;7.80;;
14770;SDS011;7477;45.222;5.688;2023-02-28T08:00:28;13.97;;;8.20;;
14770;SDS011;7477;45.222;5.688;2023-02-28T08:03:47;9.03;;;7.43;;
14770;SDS011;7477;45.222;5.688;2023-02-28T08:07:07;11.07;;;7.80;;
14770;SDS011;7477;45.222;5.688;2023-02-28T08:10:26;18.23;;;10.43;;
14770;SDS011;7477;45.222;5.688;2023-02-28T08:13:45;12.27;;;8.63;;
14770;SDS011;7477;45.222;5.688;2023-02-28T08:17:04;11.70;;;8.17;;
14770;SDS011;7477;45.222;5.688;2023-02-28T08:20:25;13.47;;;8.60;;
14770;SDS011;7477;45.222;5.688;2023-02-28T08:23:48;12.03;;;9.20;;
14770;SDS011;7477;45.222;5.688;2023-02-28T08:27:08;9.87;;;8.30;;
14770;SDS011;7477;45.222;5.688;2023-02-28T08:30:28;9.87;;;7.63;;
14770;SDS011;7477;45.222;5.688;2023-02-28T08:33:48;16.67;;;9.77;;
14770;SDS011;7477;45.222;5.688;2023-02-28T08:37:09;22.47;;;13.60;;
14770;SDS011;7477;45.222;5.688;2023-02-28T08:40:29;12.03;;;8.67;;
14770;SDS011;7477;45.222;5.688;2023-02-28T08:43:49;13.30;;;8.63;;
14770;SDS011;7477;45.222;5.688;2023-02-28T08:47:09;13.37;;;9.87;;
14770;SDS011;7477;45.222;5.688;2023-02-28T08:50:28;15.83;;;9.30;;
14770;SDS011;7477;45.222;5.688;2023-02-28T08:53:47;12.07;;;9.00;;
14770;SDS011;7477;45.222;5.688;2023-02-28T08:57:10;13.73;;;9.13;;
14770;SDS011;7477;45.222;5.688;2023-02-28T09:00:29;12.50;;;8.83;;
14770;SDS011;7477;45.222;5.688;2023-02-28T09:03:48;24.33;;;15.53;;
14770;SDS011;7477;45.222;5.688;2023-02-28T09:07:09;9.70;;;7.60;;
14770;SDS011;7477;45.222;5.688;2023-02-28T09:10:28;11.00;;;8.40;;
14770;SDS011;7477;45.222;5.688;2023-02-28T09:13:47;14.67;;;9.90;;
14770;SDS011;7477;45.222;5.688;2023-02-28T09:17:06;11.77;;;9.10;;
14770;SDS011;7477;45.222;5.688;2023-02-28T09:20:25;11.73;;;9.13;;
14770;SDS011;7477;45.222;5.688;2023-02-28T09:23:45;11.77;;;8.33;;
14770;SDS011;7477;45.222;5.688;2023-02-28T09:27:06;17.30;;;9.30;;
14770;SDS011;7477;45.222;5.688;2023-02-28T09:30:26;11.90;;;8.93;;
14770;SDS011;7477;45.222;5.688;2023-02-28T09:33:46;11.90;;;9.20;;
14770;SDS011;7477;45.222;5.688;2023-02-28T09:37:07;15.40;;;9.13;;
14770;SDS011;7477;45.222;5.688;2023-02-28T09:40:26;12.23;;;9.80;;
14770;SDS011;7477;45.222;5.688;2023-02-28T09:43:47;15.57;;;10.13;;
14770;SDS011;7477;45.222;5.688;2023-02-28T09:50:59;13.93;;;9.90;;
14770;SDS011;7477;45.222;5.688;2023-02-28T09:54:23;15.77;;;9.50;;
14770;SDS011;7477;45.222;5.688;2023-02-28T09:57:43;15.90;;;9.37;;
14770;SDS011;7477;45.222;5.688;2023-02-28T10:01:09;12.23;;;8.97;;
14770;SDS011;7477;45.222;5.688;2023-02-28T10:04:50;14.90;;;9.73;;
14770;SDS011;7477;45.222;5.688;2023-02-28T10:08:15;15.37;;;10.07;;
14770;SDS011;7477;45.222;5.688;2023-02-28T10:11:39;14.30;;;10.07;;
14770;SDS011;7477;45.222;5.688;2023-02-28T10:14:59;14.33;;;10.63;;
14770;SDS011;7477;45.222;5.688;2023-02-28T10:18:22;15.43;;;9.97;;
14770;SDS011;7477;45.222;5.688;2023-02-28T10:21:47;16.43;;;10.37;;
14770;SDS011;7477;45.222;5.688;2023-02-28T10:25:18;12.93;;;10.17;;
14770;SDS011;7477;45.222;5.688;2023-02-28T10:28:44;15.70;;;9.87;;
14770;SDS011;7477;45.222;5.688;2023-02-28T10:32:05;14.17;;;9.73;;
14770;SDS011;7477;45.222;5.688;2023-02-28T10:35:25;13.73;;;9.37;;
14770;SDS011;7477;45.222;5.688;2023-02-28T10:38:46;17.67;;;9.70;;
14770;SDS011;7477;45.222;5.688;2023-02-28T10:42:18;15.40;;;9.77;;
14770;SDS011;7477;45.222;5.688;2023-02-28T10:45:38;16.52;;;10.68;;
14770;SDS011;7477;45.222;5.688;2023-02-28T10:49:15;13.10;;;10.13;;
14770;SDS011;7477;45.222;5.688;2023-02-28T10:52:41;13.30;;;9.87;;
14770;SDS011;7477;45.222;5.688;2023-02-28T10:59:29;15.67;;;10.93;;
14770;SDS011;7477;45.222;5.688;2023-02-28T11:02:49;17.97;;;10.13;;
14770;SDS011;7477;45.222;5.688;2023-02-28T11:06:51;14.63;;;11.00;;
14770;SDS011;7477;45.222;5.688;2023-02-28T11:09:53;15.27;;;9.93;;
14770;SDS011;7477;45.222;5.688;2023-02-28T11:13:19;14.20;;;10.50;;
14770;SDS011;7477;45.222;5.688;2023-02-28T11:16:41;16.38;;;10.13;;
14770;SDS011;7477;45.222;5.688;2023-02-28T11:20:02;15.63;;;10.53;;
14770;SDS011;7477;45.222;5.688;2023-02-28T11:23:26;14.83;;;10.13;;
14770;SDS011;7477;45.222;5.688;2023-02-28T11:26:48;16.85;;;10.77;;
14770;SDS011;7477;45.222;5.688;2023-02-28T11:30:22;12.27;;;9.50;;
14770;SDS011;7477;45.222;5.688;2023-02-28T11:33:55;14.80;;;10.63;;
14770;SDS011;7477;45.222;5.688;2023-02-28T11:37:15;19.53;;;11.73;;
14770;SDS011;7477;45.222;5.688;2023-02-28T11:47:44;15.30;;;11.07;;
14770;SDS011;7477;45.222;5.688;2023-02-28T12:02:20;14.70;;;10.65;;
14770;SDS011;7477;45.222;5.688;2023-02-28T12:06:09;14.50;;;10.43;;
14770;SDS011;7477;45.222;5.688;2023-02-28T12:09:52;17.17;;;9.70;;
14770;SDS011;7477;45.222;5.688;2023-02-28T12:13:18;14.00;;;10.03;;
14770;SDS011;7477;45.222;5.688;2023-02-28T12:20:17;14.00;;;10.07;;
14770;SDS011;7477;45.222;5.688;2023-02-28T12:24:28;16.40;;;9.83;;
14770;SDS011;7477;45.222;5.688;2023-02-28T12:27:59;12.40;;;10.30;;
14770;SDS011;7477;45.222;5.688;2023-02-28T12:31:26;15.18;;;9.95;;
14770;SDS011;7477;45.222;5.688;2023-02-28T12:34:50;15.07;;;9.30;;
14770;SDS011;7477;45.222;5.688;2023-02-28T12:38:17;17.27;;;10.73;;
14770;SDS011;7477;45.222;5.688;2023-02-28T12:41:51;14.70;;;9.33;;
14770;SDS011;7477;45.222;5.688;2023-02-28T12:45:39;14.57;;;8.73;;
14770;SDS011;7477;45.222;5.688;2023-02-28T12:49:12;11.70;;;8.77;;
14770;SDS011;7477;45.222;5.688;2023-02-28T12:59:50;21.17;;;14.00;;
14770;SDS011;7477;45.222;5.688;2023-02-28T13:10:40;17.27;;;12.17;;
14770;SDS011;7477;45.222;5.688;2023-02-28T13:14:02;16.45;;;10.20;;
14770;SDS011;7477;45.222;5.688;2023-02-28T13:17:23;15.02;;;10.98;;
14770;SDS011;7477;45.222;5.688;2023-02-28T13:20:47;15.38;;;9.32;;
14770;SDS011;7477;45.222;5.688;2023-02-28T13:24:08;16.20;;;10.05;;
14770;SDS011;7477;45.222;5.688;2023-02-28T13:27:32;13.70;;;10.05;;
14770;SDS011;7477;45.222;5.688;2023-02-28T13:34:18;12.83;;;8.83;;
14770;SDS011;7477;45.222;5.688;2023-02-28T13:37:41;16.88;;;8.95;;
14770;SDS011;7477;45.222;5.688;2023-02-28T13:45:21;13.20;;;9.30;;
14770;SDS011;7477;45.222;5.688;2023-02-28T13:48:43;12.53;;;8.57;;
14770;SDS011;7477;45.222;5.688;2023-02-28T13:55:28;13.80;;;9.57;;
14770;SDS011;7477;45.222;5.688;2023-02-28T14:06:55;12.38;;;8.48;;
14770;SDS011;7477;45.222;5.688;2023-02-28T14:10:30;12.80;;;8.75;;
14770;SDS011;7477;45.222;5.688;2023-02-28T14:13:51;11.90;;;8.57;;
14770;SDS011;7477;45.222;5.688;2023-02-28T14:17:15;11.93;;;8.47;;
14770;SDS011;7477;45.222;5.688;2023-02-28T14:20:35;11.13;;;8.68;;
14770;SDS011;7477;45.222;5.688;2023-02-28T14:28:37;15.90;;;9.30;;
14770;SDS011;7477;45.222;5.688;2023-02-28T14:35:35;14.85;;;8.82;;
14770;SDS011;7477;45.222;5.688;2023-02-28T14:39:05;10.68;;;8.85;;
14770;SDS011;7477;45.222;5.688;2023-02-28T14:42:34;11.63;;;8.15;;
14770;SDS011;7477;45.222;5.688;2023-02-28T14:45:59;10.87;;;8.70;;
14770;SDS011;7477;45.222;5.688;2023-02-28T14:52:45;12.10;;;9.23;;
14770;SDS011;7477;45.222;5.688;2023-02-28T14:56:05;14.10;;;9.77;;
14770;SDS011;7477;45.222;5.688;2023-02-28T15:02:48;13.67;;;9.70;;
14770;SDS011;7477;45.222;5.688;2023-02-28T15:06:15;14.70;;;8.52;;
14770;SDS011;7477;45.222;5.688;2023-02-28T15:09:35;14.73;;;10.67;;
14770;SDS011;7477;45.222;5.688;2023-02-28T15:12:55;12.52;;;9.25;;
14770;SDS011;7477;45.222;5.688;2023-02-28T15:19:41;14.50;;;9.48;;
14770;SDS011;7477;45.222;5.688;2023-02-28T15:23:04;10.90;;;8.45;;
14770;SDS011;7477;45.222;5.688;2023-02-28T15:26:24;13.43;;;10.35;;
14770;SDS011;7477;45.222;5.688;2023-02-28T15:29:51;13.17;;;9.63;;
14770;SDS011;7477;45.222;5.688;2023-02-28T15:33:19;14.70;;;9.60;;
14770;SDS011;7477;45.222;5.688;2023-02-28T15:36:41;13.00;;;9.97;;
14770;SDS011;7477;45.222;5.688;2023-02-28T15:40:17;13.43;;;10.13;;
14770;SDS011;7477;45.222;5.688;2023-02-28T15:43:37;13.07;;;10.20;;
14770;SDS011;7477;45.222;5.688;2023-02-28T15:47:02;13.63;;;9.33;;
14770;SDS011;7477;45.222;5.688;2023-02-28T15:50:23;15.53;;;9.57;;
14770;SDS011;7477;45.222;5.688;2023-02-28T15:53:50;13.97;;;9.60;;
14770;SDS011;7477;45.222;5.688;2023-02-28T15:57:25;13.57;;;9.63;;
14770;SDS011;7477;45.222;5.688;2023-02-28T16:01:00;14.60;;;9.73;;
14770;SDS011;7477;45.222;5.688;2023-02-28T16:04:24;11.57;;;9.33;;
14770;SDS011;7477;45.222;5.688;2023-02-28T16:07:48;16.90;;;11.18;;
14770;SDS011;7477;45.222;5.688;2023-02-28T16:11:10;14.53;;;10.83;;
14770;SDS011;7477;45.222;5.688;2023-02-28T16:14:30;13.77;;;10.07;;
14770;SDS011;7477;45.222;5.688;2023-02-28T16:17:50;14.00;;;9.93;;
14770;SDS011;7477;45.222;5.688;2023-02-28T16:21:09;14.20;;;9.87;;
14770;SDS011;7477;45.222;5.688;2023-02-28T16:24:28;13.00;;;10.05;;
14770;SDS011;7477;45.222;5.688;2023-02-28T16:27:48;12.07;;;9.90;;
14770;SDS011;7477;45.222;5.688;2023-02-28T16:31:12;13.20;;;9.57;;
14770;SDS011;7477;45.222;5.688;2023-02-28T16:34:35;13.20;;;9.37;;
14770;SDS011;7477;45.222;5.688;2023-02-28T16:37:54;11.53;;;9.63;;
14770;SDS011;7477;45.222;5.688;2023-02-28T16:41:14;17.43;;;11.07;;
14770;SDS011;7477;45.222;5.688;2023-02-28T16:44:37;17.13;;;10.87;;
14770;SDS011;7477;45.222;5.688;2023-02-28T16:47:57;14.13;;;9.80;;
14770;SDS011;7477;45.222;5.688;2023-02-28T16:51:17;14.53;;;10.57;;
14770;SDS011;7477;45.222;5.688;2023-02-28T16:54:37;17.67;;;11.50;;
14770;SDS011;7477;45.222;5.688;2023-02-28T16:57:58;15.70;;;10.40;;
14770;SDS011;7477;45.222;5.688;2023-02-28T17:01:19;16.58;;;9.77;;
14770;SDS011;7477;45.222;5.688;2023-02-28T17:04:41;13.37;;;10.20;;
14770;SDS011;7477;45.222;5.688;2023-02-28T17:08:00;13.17;;;10.07;;
14770;SDS011;7477;45.222;5.688;2023-02-28T17:11:20;14.70;;;10.13;;
14770;SDS011;7477;45.222;5.688;2023-02-28T17:14:39;12.00;;;10.27;;
14770;SDS011;7477;45.222;5.688;2023-02-28T17:17:59;14.10;;;9.90;;
14770;SDS011;7477;45.222;5.688;2023-02-28T17:21:18;13.75;;;9.88;;
14770;SDS011;7477;45.222;5.688;2023-02-28T17:24:38;12.60;;;9.40;;
14770;SDS011;7477;45.222;5.688;2023-02-28T17:27:58;19.80;;;10.83;;
14770;SDS011;7477;45.222;5.688;2023-02-28T17:31:17;12.70;;;10.13;;
14770;SDS011;7477;45.222;5.688;2023-02-28T17:34:36;13.87;;;9.93;;
14770;SDS011;7477;45.222;5.688;2023-02-28T17:37:56;14.73;;;10.27;;
14770;SDS011;7477;45.222;5.688;2023-02-28T17:41:15;12.87;;;9.67;;
14770;SDS011;7477;45.222;5.688;2023-02-28T17:44:34;15.93;;;10.97;;
14770;SDS011;7477;45.222;5.688;2023-02-28T17:47:54;12.07;;;9.07;;
14770;SDS011;7477;45.222;5.688;2023-02-28T17:51:13;14.30;;;10.83;;
14770;SDS011;7477;45.222;5.688;2023-02-28T17:54:33;14.27;;;10.53;;
14770;SDS011;7477;45.222;5.688;2023-02-28T17:57:52;14.93;;;10.57;;
14770;SDS011;7477;45.222;5.688;2023-02-28T18:01:12;15.87;;;9.80;;
14770;SDS011;7477;45.222;5.688;2023-02-28T18:04:31;14.97;;;10.53;;
14770;SDS011;7477;45.222;5.688;2023-02-28T18:07:50;14.77;;;10.40;;
14770;SDS011;7477;45.222;5.688;2023-02-28T18:11:10;17.38;;;13.10;;
14770;SDS011;7477;45.222;5.688;2023-02-28T18:14:35;17.77;;;11.23;;
14770;SDS011;7477;45.222;5.688;2023-02-28T18:17:55;18.27;;;11.73;;
14770;SDS011;7477;45.222;5.688;2023-02-28T18:21:16;17.13;;;11.07;;
14770;SDS011;7477;45.222;5.688;2023-02-28T18:24:35;18.70;;;12.77;;
14770;SDS011;7477;45.222;5.688;2023-02-28T18:27:55;20.80;;;14.03;;
14770;SDS011;7477;45.222;5.688;2023-02-28T18:31:17;17.27;;;11.83;;
14770;SDS011;7477;45.222;5.688;2023-02-28T18:34:38;16.27;;;11.07;;
14770;SDS011;7477;45.222;5.688;2023-02-28T18:37:57;20.53;;;12.33;;
14770;SDS011;7477;45.222;5.688;2023-02-28T18:41:17;11.63;;;9.07;;
14770;SDS011;7477;45.222;5.688;2023-02-28T18:44:40;17.90;;;11.50;;
14770;SDS011;7477;45.222;5.688;2023-02-28T18:48:00;19.03;;;12.13;;
14770;SDS011;7477;45.222;5.688;2023-02-28T18:51:23;19.43;;;11.57;;
14770;SDS011;7477;45.222;5.688;2023-02-28T18:54:43;19.70;;;13.53;;
14770;SDS011;7477;45.222;5.688;2023-02-28T18:58:02;12.97;;;10.90;;
14770;SDS011;7477;45.222;5.688;2023-02-28T19:01:23;21.13;;;12.87;;
14770;SDS011;7477;45.222;5.688;2023-02-28T19:04:47;25.87;;;16.20;;
14770;SDS011;7477;45.222;5.688;2023-02-28T19:08:06;20.43;;;13.40;;
14770;SDS011;7477;45.222;5.688;2023-02-28T19:11:26;24.20;;;14.50;;
14770;SDS011;7477;45.222;5.688;2023-02-28T19:14:46;20.00;;;10.30;;
14770;SDS011;7477;45.222;5.688;2023-02-28T19:18:05;13.55;;;9.35;;
14770;SDS011;7477;45.222;5.688;2023-02-28T19:21:25;18.48;;;11.90;;
14770;SDS011;7477;45.222;5.688;2023-02-28T19:24:44;17.60;;;12.63;;
14770;SDS011;7477;45.222;5.688;2023-02-28T19:28:03;28.17;;;17.60;;
14770;SDS011;7477;45.222;5.688;2023-02-28T19:31:24;25.52;;;15.00;;
14770;SDS011;7477;45.222;5.688;2023-02-28T19:34:44;14.53;;;11.00;;
14770;SDS011;7477;45.222;5.688;2023-02-28T19:38:04;14.83;;;10.07;;
14770;SDS011;7477;45.222;5.688;2023-02-28T19:41:23;25.77;;;15.57;;
14770;SDS011;7477;45.222;5.688;2023-02-28T19:44:42;14.17;;;10.00;;
14770;SDS011;7477;45.222;5.688;2023-02-28T19:48:03;10.93;;;8.30;;
14770;SDS011;7477;45.222;5.688;2023-02-28T19:51:22;13.53;;;8.77;;
14770;SDS011;7477;45.222;5.688;2023-02-28T19:54:41;13.18;;;10.23;;
14770;SDS011;7477;45.222;5.688;2023-02-28T19:58:01;15.07;;;9.60;;
14770;SDS011;7477;45.222;5.688;2023-02-28T20:01:20;15.57;;;11.07;;
14770;SDS011;7477;45.222;5.688;2023-02-28T20:04:39;13.90;;;9.17;;
14770;SDS011;7477;45.222;5.688;2023-02-28T20:07:58;12.13;;;9.43;;
14770;SDS011;7477;45.222;5.688;2023-02-28T20:11:18;13.93;;;9.70;;
14770;SDS011;7477;45.222;5.688;2023-02-28T20:14:37;12.13;;;8.70;;
14770;SDS011;7477;45.222;5.688;2023-02-28T20:17:56;11.27;;;9.00;;
14770;SDS011;7477;45.222;5.688;2023-02-28T20:21:17;12.30;;;9.53;;
14770;SDS011;7477;45.222;5.688;2023-02-28T20:24:37;11.00;;;8.57;;
14770;SDS011;7477;45.222;5.688;2023-02-28T20:27:56;14.10;;;10.27;;
14770;SDS011;7477;45.222;5.688;2023-02-28T20:31:16;11.20;;;8.63;;
14770;SDS011;7477;45.222;5.688;2023-02-28T20:34:38;14.43;;;10.60;;
14770;SDS011;7477;45.222;5.688;2023-02-28T20:37:57;13.77;;;9.63;;
14770;SDS011;7477;45.222;5.688;2023-02-28T20:41:17;11.30;;;9.00;;
14770;SDS011;7477;45.222;5.688;2023-02-28T20:44:37;16.67;;;12.27;;
14770;SDS011;7477;45.222;5.688;2023-02-28T20:47:56;12.43;;;9.40;;
14770;SDS011;7477;45.222;5.688;2023-02-28T20:51:15;11.98;;;8.90;;
14770;SDS011;7477;45.222;5.688;2023-02-28T20:54:35;17.63;;;11.00;;
14770;SDS011;7477;45.222;5.688;2023-02-28T20:57:54;16.27;;;10.03;;
14770;SDS011;7477;45.222;5.688;2023-02-28T21:01:16;15.60;;;9.30;;
14770;SDS011;7477;45.222;5.688;2023-02-28T21:04:37;12.90;;;9.07;;
14770;SDS011;7477;45.222;5.688;2023-02-28T21:07:56;12.23;;;9.20;;
14770;SDS011;7477;45.222;5.688;2023-02-28T21:11:19;23.93;;;14.13;;
14770;SDS011;7477;45.222;5.688;2023-02-28T21:14:43;14.10;;;9.07;;
14770;SDS011;7477;45.222;5.688;2023-02-28T21:18:02;15.53;;;9.93;;
14770;SDS011;7477;45.222;5.688;2023-02-28T21:21:22;12.93;;;9.60;;
14770;SDS011;7477;45.222;5.688;2023-02-28T21:24:42;15.97;;;9.80;;
14770;SDS011;7477;45.222;5.688;2023-02-28T21:28:01;17.87;;;12.37;;
14770;SDS011;7477;45.222;5.688;2023-02-28T21:31:22;13.57;;;8.73;;
14770;SDS011;7477;45.222;5.688;2023-02-28T21:34:42;14.40;;;9.77;;
14770;SDS011;7477;45.222;5.688;2023-02-28T21:38:01;14.20;;;8.73;;
14770;SDS011;7477;45.222;5.688;2023-02-28T21:41:20;14.00;;;9.83;;
14770;SDS011;7477;45.222;5.688;2023-02-28T21:44:41;14.67;;;9.97;;
14770;SDS011;7477;45.222;5.688;2023-02-28T21:48:01;12.60;;;9.27;;
14770;SDS011;7477;45.222;5.688;2023-02-28T21:51:25;11.43;;;9.27;;
14770;SDS011;7477;45.222;5.688;2023-02-28T21:54:49;12.83;;;9.13;;
14770;SDS011;7477;45.222;5.688;2023-02-28T21:58:08;14.87;;;10.27;;
14770;SDS011;7477;45.222;5.688;2023-02-28T22:01:32;12.03;;;8.73;;
14770;SDS011;7477;45.222;5.688;2023-02-28T22:04:54;17.33;;;10.37;;
14770;SDS011;7477;45.222;5.688;2023-02-28T22:08:14;16.50;;;11.13;;